createdAt,value
2023-03-26T00:02:09.647Z,99652.66
2023-03-26T00:04:38.544Z,99644.91
2023-03-26T00:07:08.243Z,99649.56
2023-03-26T00:09:36.805Z,99648.75
2023-03-26T00:12:07.299Z,99648.75
2023-03-26T00:14:36.206Z,99656.75
2023-03-26T00:17:04.623Z,99656.63
2023-03-26T00:19:34.448Z,99654.69
2023-03-26T00:22:03.938Z,99655.53
2023-03-26T00:24:32.675Z,99657.09
2023-03-26T00:27:01.390Z,99661.59
2023-03-26T00:29:33.634Z,99667.19
2023-03-26T00:32:02.308Z,99661.34
2023-03-26T00:34:31.083Z,99669.69
2023-03-26T00:37:03.438Z,99669.31
2023-03-26T00:39:33.904Z,99674.19
2023-03-26T00:42:07.013Z,99676.34
2023-03-26T00:44:37.495Z,99680.28
2023-03-26T00:47:05.961Z,99685.16
2023-03-26T00:49:34.784Z,99684.78
2023-03-26T00:52:04.137Z,99676.63
2023-03-26T00:54:32.694Z,99684.88
2023-03-26T00:57:01.975Z,99681.03
2023-03-26T00:59:30.691Z,99679.09
2023-03-26T01:02:01.136Z,99689.50
2023-03-26T01:04:32.178Z,99695.47
2023-03-26T01:07:04.278Z,99684.94
2023-03-26T01:09:36.560Z,99685.78
2023-03-26T01:12:08.322Z,99689.13
2023-03-26T01:14:41.431Z,99687.44
2023-03-26T01:17:12.609Z,99689.97
2023-03-26T01:19:50.248Z,99697.72
2023-03-26T01:22:21.558Z,99700.34
2023-03-26T01:24:56.743Z,99700.22
2023-03-26T01:27:39.152Z,99700.34
2023-03-26T01:30:15.066Z,99701.09
2023-03-26T01:33:00.881Z,99708.84
2023-03-26T01:35:40.479Z,99713.00
2023-03-26T01:38:24.684Z,99705.59
2023-03-26T01:41:02.179Z,99716.09
2023-03-26T01:43:38.237Z,99720.78
2023-03-26T01:46:11.179Z,99726.88
2023-03-26T01:48:43.878Z,99723.50
2023-03-26T01:51:13.875Z,99730.47
2023-03-26T01:53:46.200Z,99731.16
2023-03-26T01:56:22.524Z,99728.41
2023-03-26T01:59:05.875Z,99732.81
2023-03-26T02:01:45.122Z,99727.09
2023-03-26T02:04:26.661Z,99730.47
2023-03-26T02:07:05.960Z,99733.19
2023-03-26T02:09:46.069Z,99735.13
2023-03-26T02:12:17.254Z,99735.63
2023-03-26T02:14:46.039Z,99728.13
2023-03-26T02:17:15.104Z,99732.19
2023-03-26T02:19:43.586Z,99734.59
2023-03-26T02:22:16.080Z,99737.00
2023-03-26T02:24:45.855Z,99741.94
2023-03-26T02:27:18.772Z,99735.47
2023-03-26T02:29:48.110Z,99732.50
2023-03-26T02:32:16.482Z,99732.75
2023-03-26T02:34:45.019Z,99739.19
2023-03-26T02:37:13.477Z,99743.00
2023-03-26T02:39:42.469Z,99745.63
2023-03-26T02:42:11.046Z,99754.97
2023-03-26T02:44:41.230Z,99754.50
2023-03-26T02:47:09.876Z,99762.84
2023-03-26T02:49:38.437Z,99767.13
2023-03-26T02:52:07.892Z,99770.97
2023-03-26T02:54:37.292Z,99774.28
2023-03-26T02:57:06.027Z,99781.94
2023-03-26T02:59:35.134Z,99782.66
2023-03-26T03:02:05.196Z,99791.38
2023-03-26T03:04:33.820Z,99793.91
2023-03-26T03:07:02.199Z,99794.81
2023-03-26T03:09:30.960Z,99800.09
2023-03-26T03:11:59.563Z,99800.34
2023-03-26T03:14:28.343Z,99813.50
2023-03-26T03:16:57.521Z,99805.22
2023-03-26T03:19:27.470Z,99801.31
2023-03-26T03:21:56.461Z,99798.81
2023-03-26T03:24:25.049Z,99804.28
2023-03-26T03:26:57.111Z,99806.78
2023-03-26T03:29:25.704Z,99812.78
2023-03-26T03:31:54.115Z,99815.88
2023-03-26T03:34:23.638Z,99809.44
2023-03-26T03:36:53.564Z,99813.72
2023-03-26T03:39:22.408Z,99817.19
2023-03-26T03:41:51.211Z,99820.63
2023-03-26T03:44:22.729Z,99822.44
2023-03-26T03:46:54.238Z,99823.16
2023-03-26T03:49:23.248Z,99825.53
2023-03-26T03:51:51.948Z,99835.94
2023-03-26T03:54:22.185Z,99832.09
2023-03-26T03:56:50.730Z,99832.00
2023-03-26T03:59:19.339Z,99831.16
2023-03-26T04:01:48.819Z,99839.28
2023-03-26T04:04:17.582Z,99840.84
2023-03-26T04:06:46.338Z,99846.81
2023-03-26T04:09:14.706Z,99847.50
2023-03-26T04:11:44.625Z,99851.84
2023-03-26T04:14:13.198Z,99851.94
2023-03-26T04:16:41.775Z,99852.75
2023-03-26T04:19:10.818Z,99854.69
2023-03-26T04:21:39.966Z,99860.78
2023-03-26T04:24:09.619Z,99862.44
2023-03-26T04:26:38.437Z,99860.78
2023-03-26T04:29:13.073Z,99867.72
2023-03-26T04:31:43.622Z,99880.03
2023-03-26T04:34:24.711Z,99885.53
2023-03-26T04:36:55.050Z,99891.84
2023-03-26T04:39:23.702Z,99890.19
2023-03-26T04:41:52.938Z,99893.53
2023-03-26T04:44:23.618Z,99906.66
2023-03-26T04:46:53.271Z,99909.28
2023-03-26T04:49:22.021Z,99906.56
2023-03-26T04:51:51.160Z,99910.97
2023-03-26T04:54:24.939Z,99918.97
2023-03-26T04:56:57.586Z,99932.00
2023-03-26T04:59:30.818Z,99935.50
2023-03-26T05:02:00.550Z,99938.22
2023-03-26T05:04:29.701Z,99943.47
2023-03-26T05:07:02.418Z,99949.69
2023-03-26T05:09:30.955Z,99953.03
2023-03-26T05:11:59.794Z,99960.81
2023-03-26T05:14:29.478Z,99967.59
2023-03-26T05:16:58.174Z,99969.66
2023-03-26T05:19:27.577Z,99975.00
2023-03-26T05:21:57.195Z,99980.41
2023-03-26T05:24:27.369Z,99987.44
2023-03-26T05:26:56.250Z,99998.94
2023-03-26T05:29:25.092Z,99997.13
2023-03-26T05:31:55.210Z,100007.41
2023-03-26T05:34:26.576Z,100013.59
2023-03-26T05:36:57.757Z,100013.00
2023-03-26T05:39:27.146Z,100018.38
2023-03-26T05:41:56.046Z,100031.41
2023-03-26T05:44:24.635Z,100030.56
2023-03-26T05:46:55.021Z,100032.22
2023-03-26T05:49:23.814Z,100044.53
2023-03-26T05:51:53.771Z,100047.78
2023-03-26T05:54:23.942Z,100052.00
2023-03-26T05:56:53.048Z,100053.88
2023-03-26T05:59:21.700Z,100057.69
2023-03-26T06:01:51.450Z,100079.81
2023-03-26T06:04:22.048Z,100075.84
2023-03-26T06:06:53.107Z,100080.47
2023-03-26T06:09:22.142Z,100093.50
2023-03-26T06:11:50.730Z,100088.69
2023-03-26T06:14:19.529Z,100089.66
2023-03-26T06:16:47.850Z,100099.44
2023-03-26T06:19:16.825Z,100093.97
2023-03-26T06:21:47.720Z,100105.53
2023-03-26T06:24:16.765Z,100111.03
2023-03-26T06:26:45.295Z,100116.38
2023-03-26T06:29:13.608Z,100128.34
2023-03-26T06:31:42.802Z,100136.34
2023-03-26T06:34:11.512Z,100143.91
2023-03-26T06:36:40.629Z,100154.41
2023-03-26T06:39:10.696Z,100149.84
2023-03-26T06:41:39.310Z,100167.53
2023-03-26T06:44:08.144Z,100170.88
2023-03-26T06:46:36.780Z,100173.63
2023-03-26T06:49:06.018Z,100171.84
2023-03-26T06:51:34.706Z,100180.34
2023-03-26T06:54:03.571Z,100181.06
2023-03-26T06:56:33.682Z,100182.75
2023-03-26T06:59:02.245Z,100197.91
2023-03-26T07:01:30.832Z,100207.34
2023-03-26T07:03:59.981Z,100203.66
2023-03-26T07:06:29.118Z,100207.97
2023-03-26T07:08:57.578Z,100217.78
2023-03-26T07:11:27.144Z,100226.91
2023-03-26T07:13:57.513Z,100225.13
2023-03-26T07:16:26.136Z,100233.31
2023-03-26T07:18:55.609Z,100238.56
2023-03-26T07:21:24.603Z,100245.41
2023-03-26T07:23:56.175Z,100254.34
2023-03-26T07:26:36.010Z,100259.50
2023-03-26T07:29:13.521Z,100270.34
2023-03-26T07:31:49.449Z,100281.56
2023-03-26T07:34:34.094Z,100291.75
2023-03-26T07:37:11.166Z,100294.28
2023-03-26T07:39:51.072Z,100303.75
2023-03-26T07:42:33.277Z,100303.38
2023-03-26T07:45:12.676Z,100316.38
2023-03-26T07:47:45.442Z,100313.38
2023-03-26T07:50:18.485Z,100322.47
2023-03-26T07:52:49.859Z,100329.22
2023-03-26T07:55:19.716Z,100335.63
2023-03-26T07:58:01.119Z,100336.25
2023-03-26T08:00:39.000Z,100336.44
2023-03-26T08:03:20.496Z,100346.44
2023-03-26T08:05:59.023Z,100353.88
2023-03-26T08:08:38.627Z,100358.31
2023-03-26T08:11:24.043Z,100358.13
2023-03-26T08:14:09.212Z,100376.06
2023-03-26T08:16:48.371Z,100371.66
2023-03-26T08:19:34.563Z,100381.97
2023-03-26T08:22:12.200Z,100384.59
2023-03-26T08:24:51.262Z,100401.22
2023-03-26T08:27:28.001Z,100411.00
2023-03-26T08:30:08.026Z,100414.34
2023-03-26T08:32:38.874Z,100411.84
2023-03-26T08:35:09.885Z,100417.63
2023-03-26T08:37:39.547Z,100422.56
2023-03-26T08:40:10.145Z,100432.22
2023-03-26T08:43:20.457Z,100447.81
2023-03-26T08:46:21.786Z,100455.47
2023-03-26T08:49:05.208Z,100465.88
2023-03-26T08:52:27.805Z,100470.09
2023-03-26T08:55:38.657Z,100480.50
2023-03-26T08:59:06.548Z,100484.78
2023-03-26T09:02:07.842Z,100493.97
2023-03-26T09:05:01.918Z,100496.38
2023-03-26T09:08:05.327Z,100495.56
2023-03-26T09:10:51.749Z,100497.88
2023-03-26T09:13:56.826Z,100495.25
2023-03-26T09:17:00.061Z,100501.22
2023-03-26T09:20:02.678Z,100512.06
2023-03-26T09:23:07.162Z,100525.75
2023-03-26T09:26:03.150Z,100540.59
2023-03-26T09:29:05.555Z,100547.53
2023-03-26T09:31:58.539Z,100563.00
2023-03-26T09:34:32.234Z,100570.88
2023-03-26T09:37:26.940Z,100569.22
2023-03-26T09:40:17.635Z,100581.09
2023-03-26T09:42:52.582Z,100586.34
2023-03-26T09:45:54.382Z,100587.47
2023-03-26T09:48:49.157Z,100597.47
2023-03-26T09:51:30.474Z,100608.81
2023-03-26T09:54:19.411Z,100626.31
2023-03-26T09:56:59.331Z,100635.44
2023-03-26T10:00:11.629Z,100645.41
2023-03-26T10:03:02.238Z,100663.03
2023-03-26T10:05:43.887Z,100676.34
2023-03-26T10:08:28.827Z,100678.91
2023-03-26T10:11:06.887Z,100693.84
2023-03-26T10:13:46.023Z,100701.91
2023-03-26T10:16:23.495Z,100705.66
2023-03-26T10:19:04.710Z,100712.25
2023-03-26T10:21:47.694Z,100718.97
2023-03-26T10:24:33.880Z,100728.56
2023-03-26T10:27:16.387Z,100740.69
2023-03-26T10:30:19.710Z,100745.75
2023-03-26T10:32:59.984Z,100756.44
2023-03-26T10:35:43.343Z,100754.28
2023-03-26T10:38:20.406Z,100760.19
2023-03-26T10:41:00.532Z,100766.34
2023-03-26T10:44:05.199Z,100778.28
2023-03-26T10:47:36.585Z,100783.53
2023-03-26T10:50:24.761Z,100787.81
2023-03-26T10:53:00.585Z,100791.53
2023-03-26T10:55:34.099Z,100791.91
2023-03-26T10:58:13.229Z,100797.75
2023-03-26T11:00:49.876Z,100807.97
2023-03-26T11:03:52.273Z,100818.56
2023-03-26T11:06:31.804Z,100819.13
2023-03-26T11:09:12.541Z,100825.81
2023-03-26T11:11:47.924Z,100845.16
2023-03-26T11:14:34.204Z,100847.50
2023-03-26T11:17:39.587Z,100856.00
2023-03-26T11:20:11.934Z,100844.28
2023-03-26T11:22:52.527Z,100852.06
2023-03-26T11:25:41.832Z,100851.22
2023-03-26T11:28:28.267Z,100865.47
2023-03-26T11:31:04.295Z,100867.03
2023-03-26T11:33:38.325Z,100867.78
2023-03-26T11:36:21.204Z,100865.63
2023-03-26T11:38:51.864Z,100872.06
2023-03-26T11:41:23.486Z,100870.94
2023-03-26T11:43:57.929Z,100878.56
2023-03-26T11:46:29.111Z,100886.84
2023-03-26T11:49:00.985Z,100886.75
2023-03-26T11:51:34.321Z,100893.72
2023-03-26T11:54:03.551Z,100895.78
2023-03-26T11:56:35.054Z,100895.91
2023-03-26T11:59:07.812Z,100899.72
2023-03-26T12:01:51.426Z,100905.06
2023-03-26T12:04:22.120Z,100898.38
2023-03-26T12:06:58.518Z,100916.72
2023-03-26T12:09:27.795Z,100931.56
2023-03-26T12:12:02.289Z,100942.50
2023-03-26T12:14:34.056Z,100952.78
2023-03-26T12:17:06.924Z,100956.34
2023-03-26T12:19:41.189Z,100959.63
2023-03-26T12:22:36.457Z,100965.78
2023-03-26T12:25:17.734Z,100967.47
2023-03-26T12:27:49.213Z,100969.75
2023-03-26T12:30:25.731Z,100967.25
2023-03-26T12:32:58.926Z,100970.22
2023-03-26T12:35:30.496Z,100970.13
2023-03-26T12:38:24.093Z,100975.97
2023-03-26T12:41:07.219Z,100989.22
2023-03-26T12:44:54.972Z,100987.41
2023-03-26T12:47:54.377Z,100985.25
2023-03-26T12:49:23.472Z,100997.72
2023-03-26T12:52:11.145Z,101000.88
2023-03-26T12:54:52.780Z,101013.56
2023-03-26T12:57:22.902Z,101019.84
2023-03-26T13:00:09.360Z,101024.47
2023-03-26T13:02:59.412Z,101025.97
2023-03-26T13:05:44.352Z,101021.06
2023-03-26T13:08:38.568Z,101028.13
2023-03-26T13:11:19.343Z,101029.34
2023-03-26T13:13:58.127Z,101037.66
2023-03-26T13:16:46.837Z,101041.81
2023-03-26T13:19:22.906Z,101042.34
2023-03-26T13:22:06.530Z,101051.91
2023-03-26T13:24:46.513Z,101044.38
2023-03-26T13:27:28.924Z,101045.56
2023-03-26T13:30:04.039Z,101053.41
2023-03-26T13:32:47.180Z,101047.75
2023-03-26T13:35:28.223Z,101049.69
2023-03-26T13:38:03.683Z,101050.00
2023-03-26T13:40:44.123Z,101056.97
2023-03-26T13:43:41.460Z,101054.47
2023-03-26T13:46:23.064Z,101064.53
2023-03-26T13:48:57.247Z,101070.22
2023-03-26T13:51:32.087Z,101077.16
2023-03-26T13:54:06.492Z,101067.69
2023-03-26T13:56:42.174Z,101080.00
2023-03-26T13:59:20.890Z,101082.44
2023-03-26T14:01:55.665Z,101078.59
2023-03-26T14:04:32.718Z,101071.50
2023-03-26T14:07:11.345Z,101078.25
2023-03-26T14:09:48.526Z,101079.22
2023-03-26T14:12:52.104Z,101074.06
2023-03-26T14:15:26.752Z,101072.22
2023-03-26T14:18:07.084Z,101072.69
2023-03-26T14:21:12.174Z,101069.13
2023-03-26T14:23:59.487Z,101066.72
2023-03-26T14:26:46.221Z,101063.56
2023-03-26T14:29:56.846Z,101089.78
2023-03-26T14:32:56.696Z,101089.25
2023-03-26T14:35:41.399Z,101096.25
2023-03-26T14:38:49.781Z,101107.09
2023-03-26T14:41:26.434Z,101103.78
2023-03-26T14:44:22.642Z,101114.56
2023-03-26T14:47:09.545Z,101122.53
2023-03-26T14:50:21.767Z,101138.50
2023-03-26T14:53:01.043Z,101134.75
2023-03-26T14:55:50.976Z,101129.16
2023-03-26T14:58:56.420Z,101121.44
2023-03-26T15:01:29.661Z,101135.94
2023-03-26T15:04:38.615Z,101143.97
2023-03-26T15:07:43.135Z,101153.94
2023-03-26T15:10:57.436Z,101161.91
2023-03-26T15:13:49.001Z,101162.56
2023-03-26T15:16:57.120Z,101168.69
2023-03-26T15:19:58.024Z,101163.69
2023-03-26T15:22:54.082Z,101175.41
2023-03-26T15:26:04.961Z,101185.59
2023-03-26T15:29:04.936Z,101195.91
2023-03-26T15:32:06.888Z,101190.63
2023-03-26T15:35:10.466Z,101197.63
2023-03-26T15:38:24.256Z,101199.81
2023-03-26T15:41:06.724Z,101199.41
2023-03-26T15:44:24.758Z,101198.44
2023-03-26T15:47:19.884Z,101216.19
2023-03-26T15:49:55.709Z,101210.31
2023-03-26T15:52:34.017Z,101215.47
2023-03-26T15:55:11.714Z,101216.53
2023-03-26T15:57:47.371Z,101223.38
2023-03-26T16:00:25.021Z,101220.50
2023-03-26T16:03:11.756Z,101229.75
2023-03-26T16:05:54.813Z,101226.56
2023-03-26T16:08:38.875Z,101231.91
2023-03-26T16:11:12.807Z,101242.09
2023-03-26T16:13:43.160Z,101252.41
2023-03-26T16:16:58.009Z,101260.09
2023-03-26T16:20:07.287Z,101276.09
2023-03-26T16:22:59.899Z,101277.56
2023-03-26T16:25:34.327Z,101280.41
2023-03-26T16:28:33.720Z,101277.56
2023-03-26T16:31:37.993Z,101288.59
2023-03-26T16:34:30.570Z,101294.78
2023-03-26T16:37:06.941Z,101301.00
2023-03-26T16:39:43.831Z,101302.78
2023-03-26T16:42:39.780Z,101312.66
2023-03-26T16:45:23.667Z,101318.59
2023-03-26T16:48:03.366Z,101329.03
2023-03-26T16:50:45.374Z,101332.22
2023-03-26T16:53:31.073Z,101335.41
2023-03-26T16:56:05.468Z,101351.13
2023-03-26T16:58:48.264Z,101354.97
2023-03-26T17:01:30.564Z,101350.41
2023-03-26T17:04:03.273Z,101352.81
2023-03-26T17:06:49.844Z,101359.59
2023-03-26T17:09:26.944Z,101373.81
2023-03-26T17:12:04.880Z,101375.03
2023-03-26T17:14:49.434Z,101386.97
2023-03-26T17:17:32.066Z,101386.09
2023-03-26T17:20:09.418Z,101399.50
2023-03-26T17:22:44.891Z,101405.53
2023-03-26T17:25:30.013Z,101418.03
2023-03-26T17:28:17.934Z,101428.75
2023-03-26T17:30:58.521Z,101424.25
2023-03-26T17:33:32.472Z,101426.78
2023-03-26T17:36:32.398Z,101431.06
2023-03-26T17:39:05.090Z,101443.63
2023-03-26T17:42:13.887Z,101440.63
2023-03-26T17:44:45.916Z,101442.00
2023-03-26T17:47:38.657Z,101441.75
2023-03-26T17:50:15.866Z,101448.31
2023-03-26T17:52:57.929Z,101443.41
2023-03-26T17:55:31.396Z,101448.78
2023-03-26T17:58:03.402Z,101457.41
2023-03-26T18:00:36.719Z,101468.56
2023-03-26T18:03:14.201Z,101475.69
2023-03-26T18:05:43.080Z,101479.41
2023-03-26T18:08:54.327Z,101471.09
2023-03-26T18:11:51.634Z,101475.75
2023-03-26T18:14:57.892Z,101480.75
2023-03-26T18:17:28.060Z,101481.47
2023-03-26T18:20:07.533Z,101488.50
2023-03-26T18:22:36.995Z,101489.75
2023-03-26T18:25:06.392Z,101485.13
2023-03-26T18:27:41.116Z,101495.00
2023-03-26T18:30:19.129Z,101488.09
2023-03-26T18:33:01.970Z,101497.53
2023-03-26T18:35:40.679Z,101494.81
2023-03-26T18:38:17.100Z,101506.44
2023-03-26T18:40:47.654Z,101507.38
2023-03-26T18:43:34.143Z,101509.91
2023-03-26T18:46:05.171Z,101517.19
2023-03-26T18:48:35.416Z,101523.63
2023-03-26T18:51:07.358Z,101528.19
2023-03-26T18:53:40.958Z,101530.53
2023-03-26T18:56:32.370Z,101541.72
2023-03-26T18:59:03.496Z,101548.00
2023-03-26T19:01:34.911Z,101541.19
2023-03-26T19:04:08.630Z,101549.94
2023-03-26T19:06:42.685Z,101550.88
2023-03-26T19:09:30.233Z,101559.09
2023-03-26T19:12:07.561Z,101561.88
2023-03-26T19:14:51.790Z,101571.59
2023-03-26T19:17:20.580Z,101568.06
2023-03-26T19:19:51.797Z,101574.88
2023-03-26T19:22:23.080Z,101582.78
2023-03-26T19:24:56.188Z,101582.91
2023-03-26T19:27:25.564Z,101587.16
2023-03-26T19:29:54.653Z,101596.91
2023-03-26T19:32:32.994Z,101607.03
2023-03-26T19:35:04.885Z,101602.94
2023-03-26T19:37:33.878Z,101610.28
2023-03-26T19:40:08.078Z,101610.59
2023-03-26T19:45:31.079Z,101625.97
2023-03-26T19:48:14.341Z,101623.69
2023-03-26T19:50:56.282Z,101629.31
2023-03-26T19:51:18.096Z,101616.00
2023-03-26T19:53:33.139Z,101623.22
2023-03-26T19:56:13.556Z,101623.72
2023-03-26T19:58:42.864Z,101625.66
2023-03-26T20:01:19.019Z,101627.50
2023-03-26T20:03:49.597Z,101626.22
2023-03-26T20:06:30.664Z,101623.13
2023-03-26T20:09:04.590Z,101625.09
2023-03-26T20:11:37.120Z,101632.19
2023-03-26T20:14:14.239Z,101635.88
2023-03-26T20:16:45.281Z,101636.28
2023-03-26T20:19:14.690Z,101641.69
2023-03-26T20:21:46.149Z,101652.25
2023-03-26T20:24:17.841Z,101648.06
2023-03-26T20:26:47.764Z,101656.28
2023-03-26T20:29:18.244Z,101658.06
2023-03-26T20:31:48.702Z,101664.28
2023-03-26T20:34:20.040Z,101663.56
2023-03-26T20:36:54.601Z,101669.94
2023-03-26T20:39:24.153Z,101669.22
2023-03-26T20:41:54.694Z,101664.19
2023-03-26T20:44:24.040Z,101666.88
2023-03-26T20:46:53.191Z,101666.22
2023-03-26T20:49:23.670Z,101664.78
2023-03-26T20:51:54.415Z,101663.28
2023-03-26T20:54:25.408Z,101668.59
2023-03-26T20:56:54.418Z,101666.00
2023-03-26T20:59:27.169Z,101673.19
2023-03-26T21:01:58.081Z,101682.88
2023-03-26T21:04:27.595Z,101687.25
2023-03-26T21:07:07.101Z,101695.13
2023-03-26T21:09:37.561Z,101686.34
2023-03-26T21:12:09.963Z,101695.22
2023-03-26T21:14:42.031Z,101705.94
2023-03-26T21:17:15.244Z,101711.44
2023-03-26T21:19:44.845Z,101711.50
2023-03-26T21:22:28.321Z,101715.91
2023-03-26T21:25:07.070Z,101728.25
2023-03-26T21:27:45.156Z,101732.19
2023-03-26T21:30:16.921Z,101737.59
2023-03-26T21:32:46.949Z,101740.31
2023-03-26T21:35:16.982Z,101735.75
2023-03-26T21:37:48.943Z,101748.19
2023-03-26T21:40:19.331Z,101747.44
2023-03-26T21:42:50.623Z,101752.81
2023-03-26T21:45:21.409Z,101758.19
2023-03-26T21:47:51.391Z,101750.53
2023-03-26T21:50:23.731Z,101755.91
2023-03-26T21:52:56.775Z,101759.50
2023-03-26T21:55:26.490Z,101755.59
2023-03-26T21:58:33.822Z,101763.72
2023-03-26T22:01:17.021Z,101757.75
2023-03-26T22:03:57.200Z,101761.28
2023-03-26T22:06:31.601Z,101763.91
2023-03-26T22:09:01.980Z,101767.47
2023-03-26T22:11:31.072Z,101772.78
2023-03-26T22:13:59.601Z,101768.63
2023-03-26T22:16:30.752Z,101776.94
2023-03-26T22:18:59.166Z,101776.13
2023-03-26T22:21:27.887Z,101784.88
2023-03-26T22:23:57.652Z,101779.81
2023-03-26T22:26:27.688Z,101795.66
2023-03-26T22:28:57.035Z,101794.91
2023-03-26T22:31:26.644Z,101806.75
2023-03-26T22:33:55.902Z,101811.00
2023-03-26T22:36:25.626Z,101815.53
2023-03-26T22:38:55.641Z,101812.00
2023-03-26T22:41:24.803Z,101819.78
2023-03-26T22:43:55.944Z,101818.88
2023-03-26T22:46:26.336Z,101825.78
2023-03-26T22:48:56.090Z,101810.97
2023-03-26T22:51:25.188Z,101824.09
2023-03-26T22:53:53.825Z,101832.88
2023-03-26T22:56:22.300Z,101835.56
2023-03-26T22:58:51.132Z,101838.16
2023-03-26T23:01:24.225Z,101834.63
2023-03-26T23:03:52.921Z,101843.50
2023-03-26T23:06:21.825Z,101845.47
2023-03-26T23:08:50.566Z,101848.19
2023-03-26T23:11:22.112Z,101847.34
2023-03-26T23:13:51.467Z,101853.78
2023-03-26T23:16:23.189Z,101852.19
2023-03-26T23:18:52.142Z,101852.31
2023-03-26T23:21:23.308Z,101855.22
2023-03-26T23:23:52.773Z,101853.63
2023-03-26T23:26:21.691Z,101847.41
2023-03-26T23:28:51.480Z,101855.16
2023-03-26T23:31:21.539Z,101859.50
2023-03-26T23:33:50.623Z,101861.31
2023-03-26T23:36:20.840Z,101871.88
2023-03-26T23:38:50.317Z,101869.25
2023-03-26T23:41:22.093Z,101868.47
2023-03-26T23:43:55.787Z,101871.16
2023-03-26T23:46:31.194Z,101867.91
2023-03-26T23:49:02.658Z,101875.03
2023-03-26T23:51:32.040Z,101876.38
2023-03-26T23:54:01.825Z,101879.88
2023-03-26T23:56:30.594Z,101885.16
2023-03-26T23:58:59.713Z,101893.63
